sensor_id;sensor_type;location;lat;lon;timestamp;pressure;altitude;pressure_sealevel;temperature;humidity
54329;BME280;40710;51.120;13.136;2023-06-14T00:00:17;99388.84;;;16.98;51.91
54329;BME280;40710;51.120;13.136;2023-06-14T00:02:41;99394.78;;;17.02;51.71
54329;BME280;40710;51.120;13.136;2023-06-14T00:05:06;99378.53;;;18.46;49.35
54329;BME280;40710;51.120;13.136;2023-06-14T00:07:39;99364.91;;;18.91;47.55
54329;BME280;40710;51.120;13.136;2023-06-14T00:10:07;99369.16;;;18.42;48.40
54329;BME280;40710;51.120;13.136;2023-06-14T00:12:31;99376.97;;;18.85;47.41
54329;BME280;40710;51.120;13.136;2023-06-14T00:14:56;99378.38;;;17.95;49.75
54329;BME280;40710;51.120;13.136;2023-06-14T00:17:20;99372.50;;;18.13;48.73
54329;BME280;40710;51.120;13.136;2023-06-14T00:19:45;99375.84;;;17.50;50.62
54329;BME280;40710;51.120;13.136;2023-06-14T00:22:10;99373.25;;;18.25;48.97
54329;BME280;40710;51.120;13.136;2023-06-14T00:24:36;99379.28;;;17.41;50.49
54329;BME280;40710;51.120;13.136;2023-06-14T00:27:00;99392.47;;;16.75;52.41
54329;BME280;40710;51.120;13.136;2023-06-14T00:29:25;99387.44;;;16.94;51.73
54329;BME280;40710;51.120;13.136;2023-06-14T00:31:50;99380.50;;;18.23;48.77
54329;BME280;40710;51.120;13.136;2023-06-14T00:34:14;99373.31;;;17.92;49.74
54329;BME280;40710;51.120;13.136;2023-06-14T00:36:40;99372.53;;;17.69;50.53
54329;BME280;40710;51.120;13.136;2023-06-14T00:39:04;99374.53;;;17.77;50.19
54329;BME280;40710;51.120;13.136;2023-06-14T00:41:29;99378.94;;;17.67;50.65
54329;BME280;40710;51.120;13.136;2023-06-14T00:43:54;99384.19;;;17.57;50.54
54329;BME280;40710;51.120;13.136;2023-06-14T00:46:20;99379.22;;;17.52;50.70
54329;BME280;40710;51.120;13.136;2023-06-14T00:48:47;99374.63;;;17.54;49.75
54329;BME280;40710;51.120;13.136;2023-06-14T00:51:12;99386.31;;;16.63;52.89
54329;BME280;40710;51.120;13.136;2023-06-14T00:53:36;99395.44;;;16.48;53.24
54329;BME280;40710;51.120;13.136;2023-06-14T00:56:03;99395.53;;;16.23;54.45
54329;BME280;40710;51.120;13.136;2023-06-14T00:58:28;99392.50;;;16.17;54.57
54329;BME280;40710;51.120;13.136;2023-06-14T01:00:53;99384.69;;;16.26;54.09
54329;BME280;40710;51.120;13.136;2023-06-14T01:03:18;99385.56;;;16.38;53.63
54329;BME280;40710;51.120;13.136;2023-06-14T01:05:46;99377.81;;;16.24;54.23
54329;BME280;40710;51.120;13.136;2023-06-14T01:08:24;99379.97;;;16.19;54.47
54329;BME280;40710;51.120;13.136;2023-06-14T01:11:07;99374.16;;;16.02;54.73
54329;BME280;40710;51.120;13.136;2023-06-14T01:13:35;99374.06;;;16.15;54.66
54329;BME280;40710;51.120;13.136;2023-06-14T01:16:01;99366.53;;;16.56;53.81
54329;BME280;40710;51.120;13.136;2023-06-14T01:18:28;99371.06;;;16.20;54.06
54329;BME280;40710;51.120;13.136;2023-06-14T01:20:54;99364.03;;;16.07;55.17
54329;BME280;40710;51.120;13.136;2023-06-14T01:23:20;99370.78;;;16.12;55.14
54329;BME280;40710;51.120;13.136;2023-06-14T01:25:46;99368.38;;;16.09;54.94
54329;BME280;40710;51.120;13.136;2023-06-14T01:28:13;99365.63;;;16.21;54.83
54329;BME280;40710;51.120;13.136;2023-06-14T01:30:42;99361.91;;;16.24;54.52
54329;BME280;40710;51.120;13.136;2023-06-14T01:33:12;99369.63;;;16.38;54.03
54329;BME280;40710;51.120;13.136;2023-06-14T01:35:38;99368.75;;;16.15;54.64
54329;BME280;40710;51.120;13.136;2023-06-14T01:38:03;99345.81;;;17.38;51.61
54329;BME280;40710;51.120;13.136;2023-06-14T01:40:31;99356.91;;;17.44;51.49
54329;BME280;40710;51.120;13.136;2023-06-14T01:42:58;99358.91;;;17.30;51.85
54329;BME280;40710;51.120;13.136;2023-06-14T01:45:23;99360.72;;;17.18;51.63
54329;BME280;40710;51.120;13.136;2023-06-14T01:47:49;99371.63;;;16.01;54.71
54329;BME280;40710;51.120;13.136;2023-06-14T01:50:14;99368.41;;;16.20;54.46
54329;BME280;40710;51.120;13.136;2023-06-14T01:52:38;99372.56;;;16.00;55.21
54329;BME280;40710;51.120;13.136;2023-06-14T01:55:04;99376.28;;;15.73;55.74
54329;BME280;40710;51.120;13.136;2023-06-14T01:57:29;99376.41;;;15.72;56.04
54329;BME280;40710;51.120;13.136;2023-06-14T01:59:53;99365.09;;;16.97;52.69
54329;BME280;40710;51.120;13.136;2023-06-14T02:02:18;99381.00;;;15.94;55.36
54329;BME280;40710;51.120;13.136;2023-06-14T02:04:43;99380.91;;;15.58;56.00
54329;BME280;40710;51.120;13.136;2023-06-14T02:07:10;99392.53;;;15.68;56.27
54329;BME280;40710;51.120;13.136;2023-06-14T02:09:35;99384.06;;;15.63;56.58
54329;BME280;40710;51.120;13.136;2023-06-14T02:12:00;99385.91;;;15.87;56.06
54329;BME280;40710;51.120;13.136;2023-06-14T02:14:24;99376.63;;;15.93;55.38
54329;BME280;40710;51.120;13.136;2023-06-14T02:16:49;99380.22;;;15.80;55.57
54329;BME280;40710;51.120;13.136;2023-06-14T02:19:19;99389.16;;;15.66;56.52
54329;BME280;40710;51.120;13.136;2023-06-14T02:21:44;99386.91;;;15.73;56.02
54329;BME280;40710;51.120;13.136;2023-06-14T02:24:10;99380.19;;;16.16;54.60
54329;BME280;40710;51.120;13.136;2023-06-14T02:26:34;99382.25;;;15.77;55.62
54329;BME280;40710;51.120;13.136;2023-06-14T02:28:59;99379.50;;;15.65;56.28
54329;BME280;40710;51.120;13.136;2023-06-14T02:31:24;99380.44;;;15.77;56.12
54329;BME280;40710;51.120;13.136;2023-06-14T02:33:49;99383.06;;;15.53;56.46
54329;BME280;40710;51.120;13.136;2023-06-14T02:36:14;99389.97;;;15.80;55.79
54329;BME280;40710;51.120;13.136;2023-06-14T02:38:38;99389.72;;;15.83;55.52
54329;BME280;40710;51.120;13.136;2023-06-14T02:41:03;99397.09;;;15.66;56.20
54329;BME280;40710;51.120;13.136;2023-06-14T02:43:29;99407.50;;;15.57;56.31
54329;BME280;40710;51.120;13.136;2023-06-14T02:45:53;99405.25;;;15.76;55.81
54329;BME280;40710;51.120;13.136;2023-06-14T02:48:18;99406.28;;;15.74;55.47
54329;BME280;40710;51.120;13.136;2023-06-14T02:50:42;99421.38;;;15.23;57.03
54329;BME280;40710;51.120;13.136;2023-06-14T02:53:07;99409.16;;;15.46;56.84
54329;BME280;40710;51.120;13.136;2023-06-14T02:55:32;99412.69;;;15.34;57.07
54329;BME280;40710;51.120;13.136;2023-06-14T02:57:56;99407.38;;;15.71;56.54
54329;BME280;40710;51.120;13.136;2023-06-14T03:00:21;99407.66;;;15.55;56.27
54329;BME280;40710;51.120;13.136;2023-06-14T03:02:46;99400.47;;;15.68;55.70
54329;BME280;40710;51.120;13.136;2023-06-14T03:05:11;99403.34;;;15.65;55.55
54329;BME280;40710;51.120;13.136;2023-06-14T03:07:35;99412.19;;;15.29;56.97
54329;BME280;40710;51.120;13.136;2023-06-14T03:10:05;99406.44;;;15.35;56.67
54329;BME280;40710;51.120;13.136;2023-06-14T03:12:30;99397.66;;;15.59;55.69
54329;BME280;40710;51.120;13.136;2023-06-14T03:14:55;99415.19;;;14.99;58.34
54329;BME280;40710;51.120;13.136;2023-06-14T03:17:21;99408.66;;;15.04;57.68
54329;BME280;40710;51.120;13.136;2023-06-14T03:19:46;99405.28;;;14.77;58.79
54329;BME280;40710;51.120;13.136;2023-06-14T03:22:11;99413.00;;;14.92;58.28
54329;BME280;40710;51.120;13.136;2023-06-14T03:24:36;99406.25;;;14.88;58.84
54329;BME280;40710;51.120;13.136;2023-06-14T03:27:00;99409.06;;;14.98;58.38
54329;BME280;40710;51.120;13.136;2023-06-14T03:29:25;99412.78;;;14.83;59.06
54329;BME280;40710;51.120;13.136;2023-06-14T03:31:58;99412.44;;;15.00;58.47
54329;BME280;40710;51.120;13.136;2023-06-14T03:34:23;99423.03;;;15.00;58.75
54329;BME280;40710;51.120;13.136;2023-06-14T03:36:47;99435.13;;;14.79;59.08
54329;BME280;40710;51.120;13.136;2023-06-14T03:39:12;99440.22;;;14.82;59.05
54329;BME280;40710;51.120;13.136;2023-06-14T03:41:37;99437.34;;;14.98;59.03
54329;BME280;40710;51.120;13.136;2023-06-14T03:44:01;99437.22;;;15.12;58.60
54329;BME280;40710;51.120;13.136;2023-06-14T03:46:26;99438.28;;;14.97;58.23
54329;BME280;40710;51.120;13.136;2023-06-14T03:48:50;99437.06;;;15.26;58.33
54329;BME280;40710;51.120;13.136;2023-06-14T03:51:15;99430.97;;;15.50;57.12
54329;BME280;40710;51.120;13.136;2023-06-14T03:53:39;99433.47;;;15.64;57.20
54329;BME280;40710;51.120;13.136;2023-06-14T03:56:04;99440.84;;;15.48;57.00
54329;BME280;40710;51.120;13.136;2023-06-14T03:58:29;99437.16;;;15.62;56.88
54329;BME280;40710;51.120;13.136;2023-06-14T04:00:53;99445.72;;;15.28;57.86
54329;BME280;40710;51.120;13.136;2023-06-14T04:03:18;99445.09;;;15.62;57.42
54329;BME280;40710;51.120;13.136;2023-06-14T04:05:43;99459.09;;;15.27;58.01
54329;BME280;40710;51.120;13.136;2023-06-14T04:08:08;99467.84;;;15.40;58.20
54329;BME280;40710;51.120;13.136;2023-06-14T04:10:33;99456.22;;;15.67;56.78
54329;BME280;40710;51.120;13.136;2023-06-14T04:12:58;99462.28;;;15.56;58.09
54329;BME280;40710;51.120;13.136;2023-06-14T04:15:22;99462.19;;;15.58;57.69
54329;BME280;40710;51.120;13.136;2023-06-14T04:17:47;99448.59;;;15.99;56.53
54329;BME280;40710;51.120;13.136;2023-06-14T04:20:12;99447.03;;;16.32;55.54
54329;BME280;40710;51.120;13.136;2023-06-14T04:22:36;99453.56;;;15.67;57.04
54329;BME280;40710;51.120;13.136;2023-06-14T04:25:01;99461.06;;;15.49;58.00
54329;BME280;40710;51.120;13.136;2023-06-14T04:27:26;99454.41;;;15.80;57.24
54329;BME280;40710;51.120;13.136;2023-06-14T04:29:55;99461.09;;;15.36;58.40
54329;BME280;40710;51.120;13.136;2023-06-14T04:32:24;99454.50;;;16.03;56.71
54329;BME280;40710;51.120;13.136;2023-06-14T04:34:50;99468.69;;;15.54;58.51
54329;BME280;40710;51.120;13.136;2023-06-14T04:37:17;99462.13;;;15.70;58.16
54329;BME280;40710;51.120;13.136;2023-06-14T04:39:43;99468.41;;;15.69;58.31
54329;BME280;40710;51.120;13.136;2023-06-14T04:42:07;99456.88;;;16.19;56.68
54329;BME280;40710;51.120;13.136;2023-06-14T04:44:32;99466.72;;;15.81;57.90
54329;BME280;40710;51.120;13.136;2023-06-14T04:46:57;99464.03;;;16.05;57.36
54329;BME280;40710;51.120;13.136;2023-06-14T04:49:23;99463.47;;;16.13;57.44
54329;BME280;40710;51.120;13.136;2023-06-14T04:51:47;99464.34;;;16.25;57.04
54329;BME280;40710;51.120;13.136;2023-06-14T04:54:15;99467.97;;;16.24;57.14
54329;BME280;40710;51.120;13.136;2023-06-14T04:56:40;99476.00;;;15.87;58.25
54329;BME280;40710;51.120;13.136;2023-06-14T04:59:06;99464.22;;;16.62;56.27
54329;BME280;40710;51.120;13.136;2023-06-14T05:01:31;99471.66;;;16.92;55.73
54329;BME280;40710;51.120;13.136;2023-06-14T05:03:56;99473.69;;;16.89;56.12
54329;BME280;40710;51.120;13.136;2023-06-14T05:06:21;99463.56;;;17.05;55.12
54329;BME280;40710;51.120;13.136;2023-06-14T05:08:45;99477.38;;;16.75;56.33
54329;BME280;40710;51.120;13.136;2023-06-14T05:11:10;99474.19;;;17.05;55.57
54329;BME280;40710;51.120;13.136;2023-06-14T05:13:35;99479.50;;;16.94;55.37
54329;BME280;40710;51.120;13.136;2023-06-14T05:16:00;99481.44;;;17.03;55.22
54329;BME280;40710;51.120;13.136;2023-06-14T05:18:25;99477.69;;;17.28;54.88
54329;BME280;40710;51.120;13.136;2023-06-14T05:20:49;99477.31;;;17.33;54.50
54329;BME280;40710;51.120;13.136;2023-06-14T05:23:14;99476.72;;;16.95;55.13
54329;BME280;40710;51.120;13.136;2023-06-14T05:25:39;99487.19;;;16.86;55.70
54329;BME280;40710;51.120;13.136;2023-06-14T05:28:03;99480.94;;;16.87;55.76
54329;BME280;40710;51.120;13.136;2023-06-14T05:30:28;99486.97;;;16.89;56.78
54329;BME280;40710;51.120;13.136;2023-06-14T05:32:54;99476.34;;;17.23;55.43
54329;BME280;40710;51.120;13.136;2023-06-14T05:35:19;99491.72;;;16.72;56.29
54329;BME280;40710;51.120;13.136;2023-06-14T05:37:43;99483.13;;;17.38;55.09
54329;BME280;40710;51.120;13.136;2023-06-14T05:40:08;99485.19;;;17.00;55.84
54329;BME280;40710;51.120;13.136;2023-06-14T05:42:33;99482.41;;;17.36;55.07
54329;BME280;40710;51.120;13.136;2023-06-14T05:44:57;99486.97;;;17.00;55.32
54329;BME280;40710;51.120;13.136;2023-06-14T05:47:22;99496.75;;;16.99;55.81
54329;BME280;40710;51.120;13.136;2023-06-14T05:49:47;99479.13;;;17.55;54.46
54329;BME280;40710;51.120;13.136;2023-06-14T05:52:11;99494.13;;;17.22;54.99
54329;BME280;40710;51.120;13.136;2023-06-14T05:54:37;99497.63;;;17.11;55.48
54329;BME280;40710;51.120;13.136;2023-06-14T05:57:02;99505.59;;;17.11;55.63
54329;BME280;40710;51.120;13.136;2023-06-14T05:59:28;99495.88;;;17.78;54.49
54329;BME280;40710;51.120;13.136;2023-06-14T06:01:52;99494.63;;;17.82;54.75
54329;BME280;40710;51.120;13.136;2023-06-14T06:04:17;99493.09;;;18.23;53.23
54329;BME280;40710;51.120;13.136;2023-06-14T06:06:41;99485.19;;;18.75;51.92
54329;BME280;40710;51.120;13.136;2023-06-14T06:09:06;99494.34;;;18.40;52.88
54329;BME280;40710;51.120;13.136;2023-06-14T06:11:31;99489.56;;;18.55;52.66
54329;BME280;40710;51.120;13.136;2023-06-14T06:13:55;99504.31;;;17.83;53.73
54329;BME280;40710;51.120;13.136;2023-06-14T06:16:20;99495.16;;;18.20;52.90
54329;BME280;40710;51.120;13.136;2023-06-14T06:18:45;99503.53;;;18.04;52.87
54329;BME280;40710;51.120;13.136;2023-06-14T06:21:09;99502.91;;;18.65;52.25
54329;BME280;40710;51.120;13.136;2023-06-14T06:23:34;99500.94;;;18.25;52.93
54329;BME280;40710;51.120;13.136;2023-06-14T06:25:59;99495.13;;;18.73;52.04
54329;BME280;40710;51.120;13.136;2023-06-14T06:28:24;99503.56;;;18.78;51.94
54329;BME280;40710;51.120;13.136;2023-06-14T06:30:49;99504.03;;;18.62;52.05
54329;BME280;40710;51.120;13.136;2023-06-14T06:33:14;99499.88;;;18.69;51.82
54329;BME280;40710;51.120;13.136;2023-06-14T06:35:39;99502.78;;;18.66;52.14
54329;BME280;40710;51.120;13.136;2023-06-14T06:38:04;99508.94;;;19.09;51.76
54329;BME280;40710;51.120;13.136;2023-06-14T06:40:29;99500.34;;;18.96;51.72
54329;BME280;40710;51.120;13.136;2023-06-14T06:42:53;99514.53;;;19.27;50.95
54329;BME280;40710;51.120;13.136;2023-06-14T06:45:18;99508.53;;;19.04;51.54
54329;BME280;40710;51.120;13.136;2023-06-14T06:47:43;99511.19;;;19.35;50.51
54329;BME280;40710;51.120;13.136;2023-06-14T06:50:08;99504.50;;;19.60;49.15
54329;BME280;40710;51.120;13.136;2023-06-14T06:52:33;99500.00;;;19.41;49.43
54329;BME280;40710;51.120;13.136;2023-06-14T06:54:58;99503.94;;;19.16;49.82
54329;BME280;40710;51.120;13.136;2023-06-14T06:57:22;99503.66;;;19.50;49.07
54329;BME280;40710;51.120;13.136;2023-06-14T06:59:47;99509.78;;;19.40;49.55
54329;BME280;40710;51.120;13.136;2023-06-14T07:02:11;99506.06;;;19.93;48.74
54329;BME280;40710;51.120;13.136;2023-06-14T07:04:36;99503.84;;;20.18;48.18
54329;BME280;40710;51.120;13.136;2023-06-14T07:07:01;99511.59;;;19.71;48.88
54329;BME280;40710;51.120;13.136;2023-06-14T07:09:25;99511.25;;;20.05;48.21
54329;BME280;40710;51.120;13.136;2023-06-14T07:11:50;99505.94;;;20.24;47.95
54329;BME280;40710;51.120;13.136;2023-06-14T07:14:15;99518.66;;;19.91;49.37
54329;BME280;40710;51.120;13.136;2023-06-14T07:16:39;99503.81;;;20.28;47.30
54329;BME280;40710;51.120;13.136;2023-06-14T07:19:05;99514.66;;;20.16;48.06
54329;BME280;40710;51.120;13.136;2023-06-14T07:21:30;99508.47;;;20.35;46.99
54329;BME280;40710;51.120;13.136;2023-06-14T07:23:55;99504.66;;;20.38;46.46
54329;BME280;40710;51.120;13.136;2023-06-14T07:26:21;99510.84;;;20.09;47.82
54329;BME280;40710;51.120;13.136;2023-06-14T07:28:47;99511.53;;;20.50;46.35
54329;BME280;40710;51.120;13.136;2023-06-14T07:31:11;99501.00;;;20.78;45.78
54329;BME280;40710;51.120;13.136;2023-06-14T07:33:37;99500.19;;;21.15;45.08
54329;BME280;40710;51.120;13.136;2023-06-14T07:36:01;99506.50;;;21.14;45.30
54329;BME280;40710;51.120;13.136;2023-06-14T07:38:43;99504.78;;;21.32;46.05
54329;BME280;40710;51.120;13.136;2023-06-14T07:41:08;99500.31;;;21.61;44.27
54329;BME280;40710;51.120;13.136;2023-06-14T07:43:33;99500.25;;;21.33;44.25
54329;BME280;40710;51.120;13.136;2023-06-14T07:45:57;99501.22;;;21.69;44.25
54329;BME280;40710;51.120;13.136;2023-06-14T07:48:22;99501.34;;;21.50;44.53
54329;BME280;40710;51.120;13.136;2023-06-14T07:50:47;99506.00;;;21.48;44.53
54329;BME280;40710;51.120;13.136;2023-06-14T07:53:11;99492.16;;;21.80;43.30
54329;BME280;40710;51.120;13.136;2023-06-14T07:55:36;99494.09;;;22.06;43.16
54329;BME280;40710;51.120;13.136;2023-06-14T07:58:05;99493.41;;;22.58;41.95
54329;BME280;40710;51.120;13.136;2023-06-14T08:00:30;99491.53;;;22.32;41.51
54329;BME280;40710;51.120;13.136;2023-06-14T08:02:54;99504.75;;;22.52;41.34
54329;BME280;40710;51.120;13.136;2023-06-14T08:05:23;99500.19;;;22.70;40.62
54329;BME280;40710;51.120;13.136;2023-06-14T08:07:47;99511.69;;;22.26;41.67
54329;BME280;40710;51.120;13.136;2023-06-14T08:10:12;99499.56;;;23.02;40.09
54329;BME280;40710;51.120;13.136;2023-06-14T08:12:36;99503.25;;;23.28;40.51
54329;BME280;40710;51.120;13.136;2023-06-14T08:15:01;99506.63;;;22.77;39.65
54329;BME280;40710;51.120;13.136;2023-06-14T08:17:26;99497.13;;;22.83;40.12
54329;BME280;40710;51.120;13.136;2023-06-14T08:19:50;99497.00;;;22.93;39.23
54329;BME280;40710;51.120;13.136;2023-06-14T08:22:15;99500.94;;;23.33;39.35
54329;BME280;40710;51.120;13.136;2023-06-14T08:24:42;99502.53;;;23.17;39.08
54329;BME280;40710;51.120;13.136;2023-06-14T08:27:06;99495.81;;;23.48;38.58
54329;BME280;40710;51.120;13.136;2023-06-14T08:29:31;99505.19;;;23.09;39.79
54329;BME280;40710;51.120;13.136;2023-06-14T08:31:55;99500.75;;;23.77;38.86
54329;BME280;40710;51.120;13.136;2023-06-14T08:34:21;99488.78;;;23.97;37.40
54329;BME280;40710;51.120;13.136;2023-06-14T08:36:45;99494.84;;;24.32;36.75
54329;BME280;40710;51.120;13.136;2023-06-14T08:39:10;99494.00;;;24.15;36.32
54329;BME280;40710;51.120;13.136;2023-06-14T08:41:35;99498.72;;;24.38;37.24
54329;BME280;40710;51.120;13.136;2023-06-14T08:44:00;99486.13;;;24.71;36.55
54329;BME280;40710;51.120;13.136;2023-06-14T08:46:26;99501.22;;;24.31;37.00
54329;BME280;40710;51.120;13.136;2023-06-14T08:48:52;99496.03;;;24.38;37.33
54329;BME280;40710;51.120;13.136;2023-06-14T08:51:19;99487.28;;;24.85;35.89
54329;BME280;40710;51.120;13.136;2023-06-14T08:53:52;99489.16;;;24.77;35.39
54329;BME280;40710;51.120;13.136;2023-06-14T08:56:17;99486.78;;;24.98;35.57
54329;BME280;40710;51.120;13.136;2023-06-14T08:58:44;99490.41;;;25.14;35.00
54329;BME280;40710;51.120;13.136;2023-06-14T09:01:09;99491.84;;;24.35;34.71
54329;BME280;40710;51.120;13.136;2023-06-14T09:03:36;99492.19;;;24.65;35.42
54329;BME280;40710;51.120;13.136;2023-06-14T09:06:05;99486.47;;;24.85;34.19
54329;BME280;40710;51.120;13.136;2023-06-14T09:08:30;99480.22;;;25.48;33.82
54329;BME280;40710;51.120;13.136;2023-06-14T09:10:55;99487.66;;;25.46;33.49
54329;BME280;40710;51.120;13.136;2023-06-14T09:13:19;99490.66;;;24.87;35.38
54329;BME280;40710;51.120;13.136;2023-06-14T09:15:44;99493.69;;;25.48;34.81
54329;BME280;40710;51.120;13.136;2023-06-14T09:18:10;99487.88;;;25.68;33.48
54329;BME280;40710;51.120;13.136;2023-06-14T09:20:35;99485.59;;;26.81;32.97
54329;BME280;40710;51.120;13.136;2023-06-14T09:23:00;99493.19;;;26.54;32.37
54329;BME280;40710;51.120;13.136;2023-06-14T09:25:25;99502.34;;;26.30;33.31
54329;BME280;40710;51.120;13.136;2023-06-14T09:27:51;99499.91;;;26.81;31.39
54329;BME280;40710;51.120;13.136;2023-06-14T09:30:16;99496.28;;;26.89;30.99
54329;BME280;40710;51.120;13.136;2023-06-14T09:32:44;99491.84;;;27.11;30.45
54329;BME280;40710;51.120;13.136;2023-06-14T09:35:09;99484.78;;;27.40;30.08
54329;BME280;40710;51.120;13.136;2023-06-14T09:37:34;99489.91;;;27.34;29.47
54329;BME280;40710;51.120;13.136;2023-06-14T09:40:00;99486.84;;;27.52;30.50
54329;BME280;40710;51.120;13.136;2023-06-14T09:42:25;99502.81;;;27.54;31.21
54329;BME280;40710;51.120;13.136;2023-06-14T09:44:51;99488.88;;;27.06;29.00
54329;BME280;40710;51.120;13.136;2023-06-14T09:47:16;99484.25;;;27.81;29.08
54329;BME280;40710;51.120;13.136;2023-06-14T09:49:41;99489.34;;;27.39;30.12
54329;BME280;40710;51.120;13.136;2023-06-14T09:52:06;99480.44;;;28.12;29.31
54329;BME280;40710;51.120;13.136;2023-06-14T09:54:40;99476.63;;;27.69;29.02
54329;BME280;40710;51.120;13.136;2023-06-14T09:57:07;99484.38;;;27.58;29.08
54329;BME280;40710;51.120;13.136;2023-06-14T09:59:35;99493.91;;;27.39;30.60
54329;BME280;40710;51.120;13.136;2023-06-14T10:02:10;99482.66;;;27.86;30.14
54329;BME280;40710;51.120;13.136;2023-06-14T10:04:37;99487.50;;;27.91;31.04
54329;BME280;40710;51.120;13.136;2023-06-14T10:07:04;99482.88;;;28.06;29.70
54329;BME280;40710;51.120;13.136;2023-06-14T10:09:30;99475.09;;;28.40;29.19
54329;BME280;40710;51.120;13.136;2023-06-14T10:11:56;99493.28;;;27.73;30.53
54329;BME280;40710;51.120;13.136;2023-06-14T10:14:21;99468.47;;;28.21;28.87
54329;BME280;40710;51.120;13.136;2023-06-14T10:19:37;99483.88;;;27.47;29.54
54329;BME280;40710;51.120;13.136;2023-06-14T10:22:12;99474.34;;;27.37;29.87
54329;BME280;40710;51.120;13.136;2023-06-14T10:24:44;99485.78;;;27.24;32.00
54329;BME280;40710;51.120;13.136;2023-06-14T10:27:09;99474.56;;;27.86;29.46
54329;BME280;40710;51.120;13.136;2023-06-14T10:32:21;99475.81;;;27.24;28.28
54329;BME280;40710;51.120;13.136;2023-06-14T10:34:45;99473.78;;;27.11;28.98
54329;BME280;40710;51.120;13.136;2023-06-14T10:37:12;99475.19;;;26.92;31.01
54329;BME280;40710;51.120;13.136;2023-06-14T10:39:43;99473.41;;;28.17;29.73
54329;BME280;40710;51.120;13.136;2023-06-14T10:42:08;99469.09;;;28.44;29.48
54329;BME280;40710;51.120;13.136;2023-06-14T10:44:50;99466.50;;;28.79;29.25
54329;BME280;40710;51.120;13.136;2023-06-14T10:47:36;99477.84;;;28.46;30.16
54329;BME280;40710;51.120;13.136;2023-06-14T10:52:28;99461.47;;;29.46;29.26
54329;BME280;40710;51.120;13.136;2023-06-14T10:55:06;99483.47;;;28.66;30.56
54329;BME280;40710;51.120;13.136;2023-06-14T10:57:33;99452.19;;;29.69;27.51
54329;BME280;40710;51.120;13.136;2023-06-14T10:59:59;99459.09;;;29.23;27.20
54329;BME280;40710;51.120;13.136;2023-06-14T11:02:51;99470.50;;;29.18;26.28
54329;BME280;40710;51.120;13.136;2023-06-14T11:05:25;99480.47;;;28.33;28.46
54329;BME280;40710;51.120;13.136;2023-06-14T11:10:37;99459.22;;;30.45;26.65
54329;BME280;40710;51.120;13.136;2023-06-14T11:13:02;99459.44;;;30.63;26.22
54329;BME280;40710;51.120;13.136;2023-06-14T11:15:31;99459.59;;;30.15;27.18
54329;BME280;40710;51.120;13.136;2023-06-14T11:17:57;99476.31;;;29.57;28.72
54329;BME280;40710;51.120;13.136;2023-06-14T11:20:25;99462.31;;;30.02;27.07
54329;BME280;40710;51.120;13.136;2023-06-14T11:22:50;99465.00;;;30.15;26.39
54329;BME280;40710;51.120;13.136;2023-06-14T11:25:15;99466.25;;;29.44;26.88
54329;BME280;40710;51.120;13.136;2023-06-14T11:27:42;99470.63;;;28.75;28.01
54329;BME280;40710;51.120;13.136;2023-06-14T11:30:08;99469.19;;;30.17;26.59
54329;BME280;40710;51.120;13.136;2023-06-14T11:32:33;99456.22;;;30.00;27.36
54329;BME280;40710;51.120;13.136;2023-06-14T11:34:58;99469.47;;;29.68;28.55
54329;BME280;40710;51.120;13.136;2023-06-14T11:37:23;99458.88;;;29.25;28.24
54329;BME280;40710;51.120;13.136;2023-06-14T11:39:49;99459.91;;;29.72;27.79
54329;BME280;40710;51.120;13.136;2023-06-14T11:42:15;99456.69;;;30.23;27.06
54329;BME280;40710;51.120;13.136;2023-06-14T11:44:40;99451.88;;;30.12;27.89
54329;BME280;40710;51.120;13.136;2023-06-14T11:47:04;99469.09;;;28.44;29.67
54329;BME280;40710;51.120;13.136;2023-06-14T11:49:29;99451.78;;;29.72;28.52
54329;BME280;40710;51.120;13.136;2023-06-14T11:51:59;99437.75;;;30.57;26.51
54329;BME280;40710;51.120;13.136;2023-06-14T11:54:23;99443.22;;;31.35;26.54
54329;BME280;40710;51.120;13.136;2023-06-14T11:56:48;99441.47;;;30.22;27.00
54329;BME280;40710;51.120;13.136;2023-06-14T11:59:13;99426.19;;;31.01;25.91
54329;BME280;40710;51.120;13.136;2023-06-14T12:01:38;99432.34;;;30.37;25.91
54329;BME280;40710;51.120;13.136;2023-06-14T12:04:03;99436.91;;;30.49;26.76
54329;BME280;40710;51.120;13.136;2023-06-14T12:06:30;99442.38;;;29.68;27.61
54329;BME280;40710;51.120;13.136;2023-06-14T12:08:57;99451.28;;;29.13;27.93
54329;BME280;40710;51.120;13.136;2023-06-14T12:11:21;99460.00;;;28.52;29.32
54329;BME280;40710;51.120;13.136;2023-06-14T12:13:48;99466.97;;;28.40;30.51
54329;BME280;40710;51.120;13.136;2023-06-14T12:16:13;99463.19;;;28.34;30.89
54329;BME280;40710;51.120;13.136;2023-06-14T12:18:39;99469.53;;;27.98;31.58
54329;BME280;40710;51.120;13.136;2023-06-14T12:21:05;99465.13;;;28.19;31.06
54329;BME280;40710;51.120;13.136;2023-06-14T12:23:43;99471.84;;;28.23;31.29
54329;BME280;40710;51.120;13.136;2023-06-14T12:26:07;99475.19;;;27.52;32.10
54329;BME280;40710;51.120;13.136;2023-06-14T12:28:32;99474.72;;;27.48;32.12
54329;BME280;40710;51.120;13.136;2023-06-14T12:30:57;99466.00;;;27.83;32.05
54329;BME280;40710;51.120;13.136;2023-06-14T12:33:23;99480.59;;;27.07;33.28
54329;BME280;40710;51.120;13.136;2023-06-14T12:35:47;99473.09;;;26.65;34.03
54329;BME280;40710;51.120;13.136;2023-06-14T12:38:12;99474.63;;;27.12;33.53
54329;BME280;40710;51.120;13.136;2023-06-14T12:40:37;99486.28;;;26.13;34.94
54329;BME280;40710;51.120;13.136;2023-06-14T12:43:03;99470.34;;;27.03;33.66
54329;BME280;40710;51.120;13.136;2023-06-14T12:45:28;99472.22;;;27.02;33.51
54329;BME280;40710;51.120;13.136;2023-06-14T12:47:53;99467.84;;;27.01;32.69
54329;BME280;40710;51.120;13.136;2023-06-14T12:50:17;99478.47;;;26.03;35.46
54329;BME280;40710;51.120;13.136;2023-06-14T12:52:42;99472.84;;;26.74;34.32